< < Back
Terminal Aerodrome Forecast


Current Version              Previous Versions:   1  2  3  4  5  6  7  8  9  

Terminal Aerodrome Forecast

031
FTAK31 PAJN 181700 RRA
TAFAGS
TAF
PAGS 181741Z 1818/1918 13008KT P6SM -SHRA OVC026
     FM182200 14008KT P6SM -SHRA BKN035 OVC050
     FM190200 VRB04KT P6SM BKN050 BKN100
     FM190600 34005KT 5SM BR SCT120
     FM191500 00000KT P6SM SCT050 BKN070
      AMD LTD TO CLD VIS AND WIND=

Latest METAR

132
SAUS70 KWBC 181800 RRH
MTRAGS
METAR KAGS 181753Z 02009KT 5SM RA BKN047 OVC060 13/10 A3023 RMK AO2
SLP236 P0005 60006 T01280100 10144 20122 58034


USA.gov is the U.S. government's official web portal to all federal, state and local government web resources and services.